Carnival Valor — H3VR — position and weather

sailwx.info

Track history (hours):
 
Tides and Currents Weather Stations Pressure Air Temp Water Temp Dewpoint Dewpoint Depression Visibility Wind Speed Wind Dir Waves Ship Positions

Carnival Valor

Last reported at 2017-Aug-20 15:00 UTC. Time now 2017-Aug-20 20:47 UTC.
Position N 24°42' W 089°30'.

Type: Ship. MMSI: 354298000.

Wind from 100 at 13 knots

Barometer 1013.0 mb
Air temperature 25.0 ° C
Visibility: greater than 10.8 NM
Dewpoint 22.0 ° C
Water temperature 31.0 ° C

Date/timePositionNaut miles runAvg speedWind from/ knotsBaromVisibWave heightAir tempDewpointWater temp
2017-Aug-20 15:00N 24°42' W 089°30'7324.4 100 / 131013.010.8 25.022.031.0
2017-Aug-20 12:00N 23°48' W 088°36'21417.5 050 / 81013.010.8 25.022.030.0
2017-Aug-19 23:48N 20°34' W 086°59'413.8
2017-Aug-19 23:30N 20°30' W 086°60'2 4.2
2017-Aug-19 22:58N 20°29' W 086°59'0 0.0
2017-Aug-19 22:28N 20°29' W 086°59'0 0.0
2017-Aug-19 21:58N 20°29' W 086°59'0 0.0
2017-Aug-19 21:28N 20°29' W 086°59'0 0.0
2017-Aug-19 20:54N 20°29' W 086°59'0 0.0
2017-Aug-19 20:30N 20°29' W 086°59'0 0.0
2017-Aug-19 20:00N 20°29' W 086°59'0 0.0
2017-Aug-19 19:30N 20°29' W 086°59'0 0.0
2017-Aug-19 18:59N 20°29' W 086°59'0 0.0
2017-Aug-19 18:29N 20°29' W 086°59'0 0.0
2017-Aug-19 17:59N 20°29' W 086°59'0 0.0
2017-Aug-19 17:29N 20°29' W 086°59'0 0.0
2017-Aug-19 16:59N 20°29' W 086°59'0 0.0
2017-Aug-19 16:28N 20°29' W 086°59'0 0.0
2017-Aug-19 15:55N 20°29' W 086°59'0 0.0
2017-Aug-19 15:28N 20°29' W 086°59'0 0.0
2017-Aug-19 14:58N 20°29' W 086°59'0 0.0
2017-Aug-19 14:00N 20°29' W 086°59'0 0.9
2017-Aug-19 13:30N 20°29' W 086°59'4 8.4
2017-Aug-19 13:00N 20°33' W 086°60'611.3
2017-Aug-19 12:30N 20°38' W 086°57'1325.2
2017-Aug-19 12:00N 20°48' W 086°48'41117.1 110 / 61011.010.8 25.022.030.0
2017-Aug-18 12:00N 26°24' W 091°06'26018.5 170 / 81013.010.8 25.022.030.0
2017-Aug-17 21:57N 29°21' W 094°42'511.0
2017-Aug-17 21:30N 29°19' W 094°47'0 0.1
2017-Aug-17 17:03N 29°19' W 094°48'0 0.0
2017-Aug-17 16:44N 29°19' W 094°48'0 0.0
2017-Aug-17 16:26N 29°19' W 094°48'0 0.0
2017-Aug-17 15:56N 29°19' W 094°48'0 0.0
2017-Aug-17 13:37N 29°19' W 094°48'0 0.0
2017-Aug-17 13:25N 29°19' W 094°48'0 0.0
2017-Aug-17 12:55N 29°19' W 094°48'0 0.2
2017-Aug-17 12:28N 29°19' W 094°48'2 4.1
2017-Aug-17 11:58N 29°20' W 094°46'33414.5
2017-Aug-16 13:00N 24°24' W 091°54'356 9.6 130 / 181013.010.8 25.022.030.0
2017-Aug-14 23:46N 20°35' W 086°59'415.5
2017-Aug-14 23:30N 20°32' W 087°01'3 6.9
2017-Aug-14 23:00N 20°29' W 086°59'0 0.0
2017-Aug-14 22:30N 20°29' W 086°59'0 0.0
2017-Aug-14 22:00N 20°29' W 086°59'0 0.0
2017-Aug-14 21:30N 20°29' W 086°59'0 0.0
2017-Aug-14 21:01N 20°29' W 086°59'0 0.0
2017-Aug-14 20:30N 20°29' W 086°59'0 0.0
2017-Aug-14 20:00N 20°29' W 086°59'0 0.0
2017-Aug-14 19:30N 20°29' W 086°59'0 0.0
2017-Aug-14 19:00N 20°29' W 086°59'0 0.0
2017-Aug-14 18:30N 20°29' W 086°59'0 0.0
2017-Aug-14 18:00N 20°29' W 086°59'0 0.0
2017-Aug-14 17:30N 20°29' W 086°59'0 0.0
2017-Aug-14 17:00N 20°29' W 086°59'0 0.0
2017-Aug-14 16:30N 20°29' W 086°59'0 0.0
2017-Aug-14 16:00N 20°29' W 086°59'0 0.0
2017-Aug-14 15:30N 20°29' W 086°59'0 0.0
2017-Aug-14 15:00N 20°29' W 086°59'0 0.0
2017-Aug-14 14:30N 20°29' W 086°59'0 0.0
2017-Aug-14 14:00N 20°29' W 086°59'1 1.3
2017-Aug-14 13:30N 20°29' W 086°59'4 8.4
2017-Aug-14 13:00N 20°33' W 086°60'611.5
2017-Aug-14 12:30N 20°38' W 086°56'917.1
2017-Aug-14 12:00N 20°42' W 086°48'42417.7 150 / 181013.010.8 25.022.030.0
2017-Aug-13 12:00N 26°30' W 091°12'25318.5 200 / 111012.010.8 25.022.030.0
2017-Aug-12 22:17N 29°21' W 094°43'311.6
2017-Aug-12 22:00N 29°20' W 094°47'2 2.1
2017-Aug-12 21:13N 29°19' W 094°48'0 0.0
2017-Aug-12 20:55N 29°19' W 094°48'0 0.0
2017-Aug-12 20:30N 29°19' W 094°48'0 0.0
2017-Aug-12 20:00N 29°19' W 094°48'0 0.0
2017-Aug-12 19:24N 29°19' W 094°48'0 0.0
2017-Aug-12 19:00N 29°19' W 094°48'0 0.0
2017-Aug-12 18:29N 29°19' W 094°48'0 0.0
2017-Aug-12 17:59N 29°19' W 094°48'0 0.0
2017-Aug-12 17:23N 29°19' W 094°48'0 0.0
2017-Aug-12 16:59N 29°19' W 094°48'0 0.0
2017-Aug-12 16:23N 29°19' W 094°48'0 0.0
2017-Aug-12 15:58N 29°19' W 094°48'0 0.0
2017-Aug-12 15:16N 29°19' W 094°48'0 0.0
2017-Aug-12 14:58N 29°19' W 094°48'0 0.0
2017-Aug-12 14:28N 29°19' W 094°48'0 0.0
2017-Aug-12 13:42N 29°19' W 094°48'0 0.0
2017-Aug-12 13:27N 29°19' W 094°48'0 0.0
2017-Aug-12 12:57N 29°19' W 094°48'0 0.0
2017-Aug-12 12:30N 29°19' W 094°48'1 2.1
2017-Aug-12 12:00N 29°19' W 094°47'3 5.1
2017-Aug-12 11:29N 29°21' W 094°45'32814.6
2017-Aug-11 13:00N 24°30' W 091°54'   130 / 151013.010.8 25.022.030.0
Track history (hours):
 
Tides and Currents Weather Stations Pressure Air Temp Water Temp Dewpoint Dewpoint Depression Visibility Wind Speed Wind Dir Waves Ship Positions

Carnival Valor

Last reported at 2017-Aug-20 15:00 UTC. Time now 2017-Aug-20 20:47 UTC.
Position N 24°42' W 089°30'.

Type: Ship. MMSI: 354298000.

Wind from 100 at 13 knots

Barometer 1013.0 mb
Air temperature 25.0 ° C
Visibility: greater than 10.8 NM
Dewpoint 22.0 ° C
Water temperature 31.0 ° C

Date/timePositionNaut miles runAvg speedWind from/ knotsBaromVisibWave heightAir tempDewpointWater temp
2017-Aug-20 15:00N 24°42' W 089°30'7324.4 100 / 131013.010.8 25.022.031.0
2017-Aug-20 12:00N 23°48' W 088°36'21417.5 050 / 81013.010.8 25.022.030.0
2017-Aug-19 23:48N 20°34' W 086°59'413.8
2017-Aug-19 23:30N 20°30' W 086°60'2 4.2
2017-Aug-19 22:58N 20°29' W 086°59'0 0.0
2017-Aug-19 22:28N 20°29' W 086°59'0 0.0
2017-Aug-19 21:58N 20°29' W 086°59'0 0.0
2017-Aug-19 21:28N 20°29' W 086°59'0 0.0
2017-Aug-19 20:54N 20°29' W 086°59'0 0.0
2017-Aug-19 20:30N 20°29' W 086°59'0 0.0
2017-Aug-19 20:00N 20°29' W 086°59'0 0.0
2017-Aug-19 19:30N 20°29' W 086°59'0 0.0
2017-Aug-19 18:59N 20°29' W 086°59'0 0.0
2017-Aug-19 18:29N 20°29' W 086°59'0 0.0
2017-Aug-19 17:59N 20°29' W 086°59'0 0.0
2017-Aug-19 17:29N 20°29' W 086°59'0 0.0
2017-Aug-19 16:59N 20°29' W 086°59'0 0.0
2017-Aug-19 16:28N 20°29' W 086°59'0 0.0
2017-Aug-19 15:55N 20°29' W 086°59'0 0.0
2017-Aug-19 15:28N 20°29' W 086°59'0 0.0
2017-Aug-19 14:58N 20°29' W 086°59'0 0.0
2017-Aug-19 14:00N 20°29' W 086°59'0 0.9
2017-Aug-19 13:30N 20°29' W 086°59'4 8.4
2017-Aug-19 13:00N 20°33' W 086°60'611.3
2017-Aug-19 12:30N 20°38' W 086°57'1325.2
2017-Aug-19 12:00N 20°48' W 086°48'41117.1 110 / 61011.010.8 25.022.030.0
2017-Aug-18 12:00N 26°24' W 091°06'26018.5 170 / 81013.010.8 25.022.030.0
2017-Aug-17 21:57N 29°21' W 094°42'511.0
2017-Aug-17 21:30N 29°19' W 094°47'0 0.1
2017-Aug-17 17:03N 29°19' W 094°48'0 0.0
2017-Aug-17 16:44N 29°19' W 094°48'0 0.0
2017-Aug-17 16:26N 29°19' W 094°48'0 0.0
2017-Aug-17 15:56N 29°19' W 094°48'0 0.0
2017-Aug-17 13:37N 29°19' W 094°48'0 0.0
2017-Aug-17 13:25N 29°19' W 094°48'0 0.0
2017-Aug-17 12:55N 29°19' W 094°48'0 0.2
2017-Aug-17 12:28N 29°19' W 094°48'2 4.1
2017-Aug-17 11:58N 29°20' W 094°46'33414.5
2017-Aug-16 13:00N 24°24' W 091°54'356 9.6 130 / 181013.010.8 25.022.030.0
2017-Aug-14 23:46N 20°35' W 086°59'415.5
2017-Aug-14 23:30N 20°32' W 087°01'3 6.9
2017-Aug-14 23:00N 20°29' W 086°59'0 0.0
2017-Aug-14 22:30N 20°29' W 086°59'0 0.0
2017-Aug-14 22:00N 20°29' W 086°59'0 0.0
2017-Aug-14 21:30N 20°29' W 086°59'0 0.0
2017-Aug-14 21:01N 20°29' W 086°59'0 0.0
2017-Aug-14 20:30N 20°29' W 086°59'0 0.0
2017-Aug-14 20:00N 20°29' W 086°59'0 0.0
2017-Aug-14 19:30N 20°29' W 086°59'0 0.0
2017-Aug-14 19:00N 20°29' W 086°59'0 0.0
2017-Aug-14 18:30N 20°29' W 086°59'0 0.0
2017-Aug-14 18:00N 20°29' W 086°59'0 0.0
2017-Aug-14 17:30N 20°29' W 086°59'0 0.0
2017-Aug-14 17:00N 20°29' W 086°59'0 0.0
2017-Aug-14 16:30N 20°29' W 086°59'0 0.0
2017-Aug-14 16:00N 20°29' W 086°59'0 0.0
2017-Aug-14 15:30N 20°29' W 086°59'0 0.0
2017-Aug-14 15:00N 20°29' W 086°59'0 0.0
2017-Aug-14 14:30N 20°29' W 086°59'0 0.0
2017-Aug-14 14:00N 20°29' W 086°59'1 1.3
2017-Aug-14 13:30N 20°29' W 086°59'4 8.4
2017-Aug-14 13:00N 20°33' W 086°60'611.5
2017-Aug-14 12:30N 20°38' W 086°56'917.1
2017-Aug-14 12:00N 20°42' W 086°48'42417.7 150 / 181013.010.8 25.022.030.0
2017-Aug-13 12:00N 26°30' W 091°12'25318.5 200 / 111012.010.8 25.022.030.0
2017-Aug-12 22:17N 29°21' W 094°43'311.6
2017-Aug-12 22:00N 29°20' W 094°47'2 2.1
2017-Aug-12 21:13N 29°19' W 094°48'0 0.0
2017-Aug-12 20:55N 29°19' W 094°48'0 0.0
2017-Aug-12 20:30N 29°19' W 094°48'0 0.0
2017-Aug-12 20:00N 29°19' W 094°48'0 0.0
2017-Aug-12 19:24N 29°19' W 094°48'0 0.0
2017-Aug-12 19:00N 29°19' W 094°48'0 0.0
2017-Aug-12 18:29N 29°19' W 094°48'0 0.0
2017-Aug-12 17:59N 29°19' W 094°48'0 0.0
2017-Aug-12 17:23N 29°19' W 094°48'0 0.0
2017-Aug-12 16:59N 29°19' W 094°48'0 0.0
2017-Aug-12 16:23N 29°19' W 094°48'0 0.0
2017-Aug-12 15:58N 29°19' W 094°48'0 0.0
2017-Aug-12 15:16N 29°19' W 094°48'0 0.0
2017-Aug-12 14:58N 29°19' W 094°48'0 0.0
2017-Aug-12 14:28N 29°19' W 094°48'0 0.0
2017-Aug-12 13:42N 29°19' W 094°48'0 0.0
2017-Aug-12 13:27N 29°19' W 094°48'0 0.0
2017-Aug-12 12:57N 29°19' W 094°48'0 0.0
2017-Aug-12 12:30N 29°19' W 094°48'1 2.1
2017-Aug-12 12:00N 29°19' W 094°47'3 5.1
2017-Aug-12 11:29N 29°21' W 094°45'32814.6
2017-Aug-11 13:00N 24°30' W 091°54'   130 / 151013.010.8 25.022.030.0

Dump ship's entire track history